createdAt,value
2023-01-21T00:00:45.726Z,-1.47
2023-01-21T00:03:47.938Z,-1.48
2023-01-21T00:06:50.032Z,-1.42
2023-01-21T00:09:51.845Z,-1.36
2023-01-21T00:12:57.278Z,-1.36
2023-01-21T00:15:59.499Z,-1.33
2023-01-21T00:19:01.635Z,-1.35
2023-01-21T00:22:04.655Z,-1.42
2023-01-21T00:25:07.549Z,-1.37
2023-01-21T00:28:11.060Z,-1.37
2023-01-21T00:31:13.259Z,-1.35
2023-01-21T00:34:19.635Z,-1.36
2023-01-21T00:37:21.461Z,-1.34
2023-01-21T00:40:23.341Z,-1.38
2023-01-21T00:43:33.913Z,-1.41
2023-01-21T00:46:36.020Z,-1.39
2023-01-21T00:49:37.878Z,-1.44
2023-01-21T00:52:39.656Z,-1.39
2023-01-21T00:55:42.024Z,-1.37
2023-01-21T00:58:47.739Z,-1.50
2023-01-21T01:01:49.760Z,-1.43
2023-01-21T01:04:51.575Z,-1.36
2023-01-21T01:07:54.407Z,-1.34
2023-01-21T01:10:56.463Z,-1.44
2023-01-21T01:14:01.363Z,-1.42
2023-01-21T01:17:03.214Z,-1.47
2023-01-21T01:20:06.113Z,-1.49
2023-01-21T01:23:07.864Z,-1.38
2023-01-21T01:26:11.710Z,-1.29
2023-01-21T01:29:15.117Z,-1.50
2023-01-21T01:32:16.973Z,-1.46
2023-01-21T01:35:18.715Z,-1.53
2023-01-21T01:38:22.356Z,-1.57
2023-01-21T01:41:26.688Z,-1.58
2023-01-21T01:45:05.062Z,-1.64
2023-01-21T01:48:11.937Z,-1.70
2023-01-21T01:51:16.949Z,-1.65
2023-01-21T01:54:23.225Z,-1.47
2023-01-21T01:57:34.861Z,-1.53
2023-01-21T02:00:36.933Z,-1.54
2023-01-21T02:03:44.365Z,-1.55
2023-01-21T02:06:48.194Z,-1.56
2023-01-21T02:09:50.949Z,-1.49
2023-01-21T02:12:53.372Z,-1.60
2023-01-21T02:16:12.302Z,-1.52
2023-01-21T02:20:07.099Z,-1.58
2023-01-21T02:23:17.298Z,-1.59
2023-01-21T02:26:48.102Z,-1.58
2023-01-21T02:30:25.670Z,-1.63
2023-01-21T02:33:53.502Z,-1.66
2023-01-21T02:37:05.192Z,-1.72
2023-01-21T02:40:13.653Z,-1.74
2023-01-21T02:43:24.880Z,-1.75
2023-01-21T02:46:33.891Z,-1.71
2023-01-21T02:49:41.927Z,-1.83
2023-01-21T02:52:44.311Z,-1.76
2023-01-21T02:55:46.117Z,-1.81
2023-01-21T02:58:51.630Z,-1.95
2023-01-21T03:02:03.598Z,-1.95
2023-01-21T03:05:16.799Z,-2.09
2023-01-21T03:08:21.988Z,-2.06
2023-01-21T03:11:24.198Z,-2.23
2023-01-21T03:14:32.353Z,-2.26
2023-01-21T03:17:40.141Z,-2.18
2023-01-21T03:20:47.205Z,-2.25
2023-01-21T03:23:52.844Z,-2.21
2023-01-21T03:26:55.934Z,-2.33
2023-01-21T03:30:02.846Z,-2.29
2023-01-21T03:33:06.771Z,-2.33
2023-01-21T03:36:16.519Z,-2.27
2023-01-21T03:39:27.119Z,-2.44
2023-01-21T03:42:30.108Z,-2.43
2023-01-21T03:45:37.391Z,-2.42
2023-01-21T03:48:44.705Z,-2.46
2023-01-21T03:51:52.875Z,-2.51
2023-01-21T03:54:54.881Z,-2.52
2023-01-21T03:57:56.931Z,-2.40
2023-01-21T04:00:58.761Z,-2.42
2023-01-21T04:04:01.823Z,-2.41
2023-01-21T04:07:05.209Z,-2.39
2023-01-21T04:10:11.140Z,-2.44
2023-01-21T04:13:12.923Z,-2.54
2023-01-21T04:16:15.553Z,-2.53
2023-01-21T04:19:17.326Z,-2.49
2023-01-21T04:22:21.234Z,-2.36
2023-01-21T04:25:23.042Z,-2.51
2023-01-21T04:28:26.946Z,-2.52
2023-01-21T04:31:29.238Z,-2.47
2023-01-21T04:34:31.252Z,-2.43
2023-01-21T04:37:36.788Z,-2.63
2023-01-21T04:40:38.750Z,-2.61
2023-01-21T04:43:41.563Z,-2.51
2023-01-21T04:46:43.336Z,-2.47
2023-01-21T04:49:45.103Z,-2.55
2023-01-21T04:52:49.108Z,-2.43
2023-01-21T04:55:52.537Z,-2.39
2023-01-21T04:58:54.341Z,-2.48
2023-01-21T05:01:56.441Z,-2.38
2023-01-21T05:04:58.274Z,-2.56
2023-01-21T05:08:01.691Z,-2.61
2023-01-21T05:11:03.541Z,-2.61
2023-01-21T05:14:05.611Z,-2.59
2023-01-21T05:17:07.449Z,-2.57
2023-01-21T05:20:10.681Z,-2.60
2023-01-21T05:23:13.905Z,-2.73
2023-01-21T05:26:15.923Z,-2.69
2023-01-21T05:29:19.158Z,-2.68
2023-01-21T05:32:23.777Z,-2.75
2023-01-21T05:35:25.589Z,-2.74
2023-01-21T05:38:29.724Z,-2.73
2023-01-21T05:41:32.145Z,-2.58
2023-01-21T05:44:34.184Z,-2.76
2023-01-21T05:47:37.681Z,-2.84
2023-01-21T05:50:39.756Z,-2.80
2023-01-21T05:53:44.509Z,-2.86
2023-01-21T05:56:46.314Z,-2.83
2023-01-21T05:59:48.446Z,-2.73
2023-01-21T06:02:51.716Z,-2.85
2023-01-21T06:05:56.284Z,-2.90
2023-01-21T06:09:01.997Z,-2.86
2023-01-21T06:12:05.009Z,-2.84
2023-01-21T06:15:08.131Z,-2.92
2023-01-21T06:18:14.330Z,-2.92
2023-01-21T06:21:16.423Z,-3.01
2023-01-21T06:24:24.531Z,-2.93
2023-01-21T06:27:26.316Z,-3.03
2023-01-21T06:30:28.404Z,-2.89
2023-01-21T06:33:32.553Z,-2.89
2023-01-21T06:36:36.063Z,-2.94
2023-01-21T06:39:39.521Z,-2.93
2023-01-21T06:42:43.929Z,-2.98
2023-01-21T06:45:46.509Z,-3.04
2023-01-21T06:48:48.343Z,-2.93
2023-01-21T06:51:50.649Z,-2.98
2023-01-21T06:54:53.846Z,-2.91
2023-01-21T06:57:55.678Z,-2.94
2023-01-21T07:00:57.936Z,-2.98
2023-01-21T07:04:02.057Z,-2.88
2023-01-21T07:07:03.815Z,-2.86
2023-01-21T07:10:08.009Z,-2.86
2023-01-21T07:13:11.896Z,-2.87
2023-01-21T07:16:13.793Z,-2.77
2023-01-21T07:19:16.041Z,-2.74
2023-01-21T07:22:17.795Z,-2.74
2023-01-21T07:25:21.198Z,-2.65
2023-01-21T07:28:23.298Z,-2.85
2023-01-21T07:31:28.146Z,-2.82
2023-01-21T07:34:29.976Z,-2.74
2023-01-21T07:37:32.520Z,-2.78
2023-01-21T07:40:38.286Z,-2.89
2023-01-21T07:43:40.130Z,-2.75
2023-01-21T07:46:44.788Z,-2.77
2023-01-21T07:49:50.111Z,-2.76
2023-01-21T07:52:53.050Z,-2.73
2023-01-21T07:55:56.513Z,-2.74
2023-01-21T07:58:58.348Z,-2.78
2023-01-21T08:02:00.417Z,-2.77
2023-01-21T08:05:02.586Z,-2.62
2023-01-21T08:08:05.134Z,-2.68
2023-01-21T08:11:08.383Z,-2.61
2023-01-21T08:14:10.497Z,-2.50
2023-01-21T08:17:12.921Z,-2.36
2023-01-21T08:20:15.084Z,-2.53
2023-01-21T08:23:17.159Z,-2.55
2023-01-21T08:26:22.282Z,-2.59
2023-01-21T08:29:25.604Z,-2.63
2023-01-21T08:32:32.734Z,-2.68
2023-01-21T08:35:34.702Z,-2.62
2023-01-21T08:38:38.697Z,-2.58
2023-01-21T08:41:43.115Z,-2.62
2023-01-21T08:44:44.906Z,-2.60
2023-01-21T08:47:47.021Z,-2.67
2023-01-21T08:50:51.430Z,-2.69
2023-01-21T08:53:55.287Z,-2.71
2023-01-21T08:56:58.480Z,-2.64
2023-01-21T09:00:00.320Z,-2.69
2023-01-21T09:03:02.101Z,-2.66
2023-01-21T09:06:05.083Z,-2.67
2023-01-21T09:09:06.893Z,-2.69
2023-01-21T09:12:11.381Z,-2.70
2023-01-21T09:15:14.295Z,-2.67
2023-01-21T09:18:18.756Z,-2.59
2023-01-21T09:21:20.554Z,-2.56
2023-01-21T09:24:22.381Z,-2.42
2023-01-21T09:27:25.583Z,-2.43
2023-01-21T09:30:27.426Z,-2.41
2023-01-21T09:33:30.780Z,-2.42
2023-01-21T09:36:34.845Z,-2.36
2023-01-21T09:39:36.926Z,-2.36
2023-01-21T09:42:41.414Z,-2.47
2023-01-21T09:45:45.389Z,-2.46
2023-01-21T09:48:50.682Z,-2.49
2023-01-21T09:52:00.602Z,-2.61
2023-01-21T09:55:04.452Z,-2.54
2023-01-21T09:58:19.821Z,-2.44
2023-01-21T10:01:29.047Z,-2.44
2023-01-21T10:04:41.519Z,-2.51
2023-01-21T10:07:54.039Z,-2.45
2023-01-21T10:11:03.030Z,-2.31
2023-01-21T10:14:14.920Z,-2.47
2023-01-21T10:17:25.641Z,-2.45
2023-01-21T10:20:31.492Z,-2.46
2023-01-21T10:23:38.201Z,-2.40
2023-01-21T10:26:43.521Z,-2.42
2023-01-21T10:29:50.660Z,-2.53
2023-01-21T10:32:55.059Z,-2.57
2023-01-21T10:36:20.892Z,-2.53
2023-01-21T10:39:37.366Z,-2.48
2023-01-21T10:42:51.527Z,-2.33
2023-01-21T10:46:02.762Z,-2.14
2023-01-21T10:49:18.288Z,-2.38
2023-01-21T10:52:29.809Z,-2.21
2023-01-21T10:55:43.444Z,-2.22
2023-01-21T10:58:49.100Z,-2.32
2023-01-21T11:02:02.366Z,-2.22
2023-01-21T11:05:06.284Z,-2.11
2023-01-21T11:08:14.942Z,-2.16
2023-01-21T11:11:24.607Z,-2.09
2023-01-21T11:14:26.653Z,-2.04
2023-01-21T11:17:33.204Z,-2.03
2023-01-21T11:20:39.642Z,-2.10
2023-01-21T11:23:41.479Z,-2.13
2023-01-21T11:26:51.148Z,-2.19
2023-01-21T11:29:52.932Z,-1.99
2023-01-21T11:33:12.998Z,-2.14
2023-01-21T11:36:16.775Z,-1.99
2023-01-21T11:39:23.715Z,-2.12
2023-01-21T11:42:26.142Z,-2.10
2023-01-21T11:45:30.485Z,-2.04
2023-01-21T11:48:33.896Z,-2.31
2023-01-21T11:51:38.045Z,-2.42
2023-01-21T11:54:42.350Z,-2.32
2023-01-21T11:57:50.493Z,-2.12
2023-01-21T12:00:55.753Z,-2.12
2023-01-21T12:04:01.266Z,-2.06
2023-01-21T12:07:05.480Z,-2.09
2023-01-21T12:10:20.572Z,-2.07
2023-01-21T12:13:33.663Z,-2.28
2023-01-21T12:16:38.240Z,-2.29
2023-01-21T12:19:55.144Z,-2.24
2023-01-21T12:23:11.004Z,-2.12
2023-01-21T12:26:28.314Z,-2.17
2023-01-21T12:29:42.540Z,-2.20
2023-01-21T12:32:48.783Z,-2.25
2023-01-21T12:35:57.921Z,-2.14
2023-01-21T12:39:21.452Z,-2.25
2023-01-21T12:42:30.298Z,-2.13
2023-01-21T12:45:39.776Z,-2.18
2023-01-21T12:48:47.358Z,-2.29
2023-01-21T12:51:59.993Z,-2.32
2023-01-21T12:55:10.808Z,-2.20
2023-01-21T12:58:18.162Z,-2.32
2023-01-21T13:01:44.239Z,-2.32
2023-01-21T13:04:54.600Z,-2.39
2023-01-21T13:08:11.598Z,-2.46
2023-01-21T13:11:19.209Z,-2.31
2023-01-21T13:14:28.742Z,-2.23
2023-01-21T13:17:35.137Z,-2.27
2023-01-21T13:20:44.339Z,-2.22
2023-01-21T13:23:54.477Z,-2.18
2023-01-21T13:27:06.227Z,-2.26
2023-01-21T13:30:19.796Z,-2.35
2023-01-21T13:33:34.409Z,-2.39
2023-01-21T13:36:52.004Z,-2.42
2023-01-21T13:40:18.896Z,-2.45
2023-01-21T13:43:39.530Z,-2.56
2023-01-21T13:46:51.972Z,-2.52
2023-01-21T13:50:08.797Z,-2.46
2023-01-21T13:53:26.648Z,-2.39
2023-01-21T13:56:52.337Z,-2.42
2023-01-21T13:59:59.987Z,-2.49
2023-01-21T14:03:13.191Z,-2.40
2023-01-21T14:06:21.807Z,-2.41
2023-01-21T14:09:27.599Z,-2.51
2023-01-21T14:12:48.753Z,-2.49
2023-01-21T14:16:19.884Z,-2.52
2023-01-21T14:20:05.278Z,-2.36
2023-01-21T14:23:32.715Z,-2.38
2023-01-21T14:26:57.297Z,-2.28
2023-01-21T14:33:35.616Z,-2.31
2023-01-21T14:36:44.976Z,-2.38
2023-01-21T14:39:54.593Z,-2.41
2023-01-21T14:42:57.063Z,-2.44
2023-01-21T14:46:00.766Z,-2.44
2023-01-21T14:49:06.819Z,-2.36
2023-01-21T14:52:13.616Z,-2.32
2023-01-21T14:55:27.679Z,-2.22
2023-01-21T14:58:29.860Z,-2.21
2023-01-21T15:01:37.465Z,-2.28
2023-01-21T15:04:53.031Z,-2.20
2023-01-21T15:08:05.828Z,-2.12
2023-01-21T15:11:17.532Z,-2.14
2023-01-21T15:14:23.073Z,-2.08
2023-01-21T15:17:45.016Z,-2.04
2023-01-21T15:20:51.283Z,-2.17
2023-01-21T15:24:13.180Z,-2.18
2023-01-21T15:27:18.147Z,-2.10
2023-01-21T15:30:27.410Z,-2.13
2023-01-21T15:33:30.592Z,-2.02
2023-01-21T15:36:42.789Z,-2.11
2023-01-21T15:39:45.159Z,-2.12
2023-01-21T15:42:54.874Z,-2.07
2023-01-21T15:46:10.161Z,-2.05
2023-01-21T15:49:28.368Z,-2.02
2023-01-21T15:52:43.821Z,-2.11
2023-01-21T15:56:05.986Z,-2.27
2023-01-21T15:59:23.261Z,-2.21
2023-01-21T16:02:28.081Z,-2.23
2023-01-21T16:05:39.326Z,-2.26
2023-01-21T16:09:03.051Z,-2.22
2023-01-21T16:12:17.712Z,-2.15
2023-01-21T16:15:28.814Z,-2.11
2023-01-21T16:18:37.995Z,-2.02
2023-01-21T16:21:44.197Z,-1.97
2023-01-21T16:24:51.523Z,-1.97
2023-01-21T16:27:55.405Z,-1.93
2023-01-21T16:30:59.788Z,-1.89
2023-01-21T16:34:02.002Z,-1.89
2023-01-21T16:37:05.773Z,-1.92
2023-01-21T16:40:27.579Z,-1.91
2023-01-21T16:43:29.717Z,-1.82
2023-01-21T16:46:34.942Z,-1.84
2023-01-21T16:49:37.390Z,-1.94
2023-01-21T16:52:39.449Z,-1.88
2023-01-21T16:55:45.708Z,-1.91
2023-01-21T16:58:47.823Z,-1.93
2023-01-21T17:01:50.829Z,-1.89
2023-01-21T17:04:55.514Z,-1.84
2023-01-21T17:07:59.853Z,-1.90
2023-01-21T17:11:07.496Z,-2.06
2023-01-21T17:14:10.809Z,-1.94
2023-01-21T17:17:23.724Z,-1.91
2023-01-21T17:20:39.231Z,-1.90
2023-01-21T17:23:47.456Z,-1.92
2023-01-21T17:26:54.507Z,-1.90
2023-01-21T17:30:19.268Z,-1.83
2023-01-21T17:33:28.717Z,-1.80
2023-01-21T17:36:35.949Z,-1.81
2023-01-21T17:39:59.806Z,-1.88
2023-01-21T17:43:21.139Z,-1.92
2023-01-21T17:46:24.320Z,-1.95
2023-01-21T17:49:26.940Z,-1.95
2023-01-21T17:52:29.947Z,-2.07
2023-01-21T17:55:34.238Z,-2.01
2023-01-21T17:58:49.384Z,-2.10
2023-01-21T18:01:52.110Z,-2.00
2023-01-21T18:04:55.043Z,-2.00
2023-01-21T18:07:58.004Z,-2.10
2023-01-21T18:10:59.830Z,-2.05
2023-01-21T18:14:03.171Z,-2.14
2023-01-21T18:17:06.702Z,-2.29
2023-01-21T18:20:16.754Z,-2.35
2023-01-21T18:23:19.589Z,-2.26
2023-01-21T18:26:28.726Z,-2.14
2023-01-21T18:29:32.128Z,-2.17
2023-01-21T18:32:42.670Z,-2.26
2023-01-21T18:35:48.029Z,-2.32
2023-01-21T18:38:51.041Z,-2.28
2023-01-21T18:41:53.675Z,-2.29
2023-01-21T18:44:57.547Z,-2.33
2023-01-21T18:48:00.180Z,-2.24
2023-01-21T18:51:02.766Z,-2.27
2023-01-21T18:54:05.661Z,-2.33
2023-01-21T18:57:11.991Z,-2.32
2023-01-21T19:00:26.589Z,-2.23
2023-01-21T19:03:29.275Z,-2.37
2023-01-21T19:06:32.312Z,-2.34
2023-01-21T19:09:34.938Z,-2.42
2023-01-21T19:12:36.936Z,-2.57
2023-01-21T19:15:40.912Z,-2.57
2023-01-21T19:18:43.557Z,-2.55
2023-01-21T19:21:46.478Z,-2.59
2023-01-21T19:24:49.287Z,-2.58
2023-01-21T19:27:53.744Z,-2.64
2023-01-21T19:30:58.272Z,-2.57
2023-01-21T19:34:00.594Z,-2.54
2023-01-21T19:37:03.478Z,-2.59
2023-01-21T19:40:13.499Z,-2.56
2023-01-21T19:43:17.635Z,-2.49
2023-01-21T19:46:23.012Z,-2.61
2023-01-21T19:49:25.558Z,-2.56
2023-01-21T19:52:28.451Z,-2.50
2023-01-21T19:55:34.811Z,-2.60
2023-01-21T19:58:39.354Z,-2.53
2023-01-21T20:01:45.244Z,-2.54
2023-01-21T20:04:47.997Z,-2.42
2023-01-21T20:07:51.096Z,-2.51
2023-01-21T20:10:54.124Z,-2.44
2023-01-21T20:13:57.015Z,-2.34
2023-01-21T20:17:02.105Z,-2.27
2023-01-21T20:20:14.627Z,-2.31
2023-01-21T20:23:17.741Z,-2.32
2023-01-21T20:26:24.769Z,-2.30
2023-01-21T20:29:27.574Z,-2.28
2023-01-21T20:32:32.001Z,-2.22
2023-01-21T20:35:34.988Z,-2.29
2023-01-21T20:38:39.470Z,-2.36
2023-01-21T20:41:42.157Z,-2.37
2023-01-21T20:44:45.322Z,-2.44
2023-01-21T20:47:52.024Z,-2.30
2023-01-21T20:50:55.299Z,-2.31
2023-01-21T20:54:01.437Z,-2.39
2023-01-21T20:57:08.549Z,-2.58
2023-01-21T21:00:16.023Z,-2.49
2023-01-21T21:03:20.233Z,-2.41
2023-01-21T21:06:26.419Z,-2.44
2023-01-21T21:09:28.618Z,-2.37
2023-01-21T21:12:30.800Z,-2.44
2023-01-21T21:15:35.246Z,-2.49
2023-01-21T21:18:39.464Z,-2.51
2023-01-21T21:21:42.862Z,-2.42
2023-01-21T21:24:45.250Z,-2.48
2023-01-21T21:27:48.593Z,-2.37
2023-01-21T21:30:52.088Z,-2.36
2023-01-21T21:33:56.606Z,-2.43
2023-01-21T21:36:59.254Z,-2.40
2023-01-21T21:40:01.864Z,-2.41
2023-01-21T21:43:04.470Z,-2.36
2023-01-21T21:46:07.839Z,-2.34
2023-01-21T21:49:11.930Z,-2.32
2023-01-21T21:52:14.066Z,-2.24
2023-01-21T21:55:16.323Z,-2.23
2023-01-21T21:58:18.749Z,-2.23
2023-01-21T22:01:23.282Z,-2.21
2023-01-21T22:04:26.935Z,-2.21
2023-01-21T22:07:29.462Z,-2.21
2023-01-21T22:10:31.300Z,-2.23
2023-01-21T22:13:35.442Z,-2.28
2023-01-21T22:16:37.232Z,-2.39
2023-01-21T22:19:40.426Z,-2.38
2023-01-21T22:22:42.149Z,-2.33
2023-01-21T22:25:43.923Z,-2.34
2023-01-21T22:28:46.083Z,-2.39
2023-01-21T22:31:47.950Z,-2.43
2023-01-21T22:34:51.112Z,-2.51
2023-01-21T22:37:52.902Z,-2.38
2023-01-21T22:40:55.214Z,-2.51
2023-01-21T22:43:57.001Z,-2.43
2023-01-21T22:46:58.790Z,-2.47
2023-01-21T22:50:01.904Z,-2.40
2023-01-21T22:53:03.666Z,-2.40
2023-01-21T22:56:06.296Z,-2.42
2023-01-21T22:59:08.058Z,-2.37
2023-01-21T23:02:09.786Z,-2.25
2023-01-21T23:05:13.120Z,-2.23
2023-01-21T23:08:16.176Z,-2.23
2023-01-21T23:11:19.532Z,-2.20
2023-01-21T23:14:21.347Z,-2.16
2023-01-21T23:17:23.120Z,-2.20
2023-01-21T23:20:26.313Z,-2.16
2023-01-21T23:23:30.094Z,-2.13
2023-01-21T23:26:31.967Z,-2.21
2023-01-21T23:29:33.725Z,-2.24
2023-01-21T23:32:35.538Z,-2.17
2023-01-21T23:35:38.678Z,-2.21
2023-01-21T23:38:41.369Z,-2.18
2023-01-21T23:41:43.165Z,-2.17
2023-01-21T23:44:44.937Z,-2.16
2023-01-21T23:47:46.689Z,-2.20
2023-01-21T23:50:50.242Z,-2.17
2023-01-21T23:53:52.004Z,-2.18
2023-01-21T23:56:55.410Z,-2.12
2023-01-21T23:59:57.252Z,-2.12
